createdAt,value
2022-08-22T00:02:02.975Z,53.86
2022-08-22T00:02:43.870Z,49.15
2022-08-22T00:04:59.667Z,54.12
2022-08-22T00:07:53.079Z,54.44
2022-08-22T00:10:31.411Z,54.30
2022-08-22T00:13:07.594Z,55.08
2022-08-22T00:15:42.885Z,54.42
2022-08-22T00:18:36.727Z,55.64
2022-08-22T00:21:37.840Z,54.92
2022-08-22T00:24:19.779Z,54.27
2022-08-22T00:26:59.066Z,54.61
2022-08-22T00:29:34.972Z,54.30
2022-08-22T00:32:15.716Z,54.36
2022-08-22T00:35:07.369Z,54.41
2022-08-22T00:37:59.789Z,54.60
2022-08-22T00:40:53.540Z,54.66
2022-08-22T00:43:41.669Z,54.75
2022-08-22T00:46:28.884Z,55.84
2022-08-22T00:49:04.534Z,54.60
2022-08-22T00:51:56.160Z,55.38
2022-08-22T00:54:34.082Z,54.17
2022-08-22T00:57:24.112Z,54.42
2022-08-22T01:00:14.075Z,54.68
2022-08-22T01:02:51.842Z,55.29
2022-08-22T01:05:37.072Z,55.43
2022-08-22T01:08:22.218Z,55.31
2022-08-22T01:11:01.238Z,55.28
2022-08-22T01:14:18.851Z,55.51
2022-08-22T01:17:19.594Z,56.02
2022-08-22T01:20:11.188Z,56.39
2022-08-22T01:23:10.426Z,56.20
2022-08-22T01:26:08.188Z,55.62
2022-08-22T01:28:54.785Z,56.52
2022-08-22T01:31:49.394Z,56.27
2022-08-22T01:34:37.739Z,56.27
2022-08-22T01:37:35.796Z,56.90
2022-08-22T01:40:54.514Z,57.43
2022-08-22T01:43:51.488Z,57.38
2022-08-22T01:46:44.536Z,57.84
2022-08-22T01:49:27.307Z,57.42
2022-08-22T01:52:01.818Z,57.90
2022-08-22T01:54:45.086Z,57.03
2022-08-22T01:57:12.850Z,57.29
2022-08-22T01:59:44.063Z,57.26
2022-08-22T02:02:48.154Z,57.54
2022-08-22T02:05:46.231Z,57.92
2022-08-22T02:08:21.598Z,58.32
2022-08-22T02:10:57.806Z,57.39
2022-08-22T02:13:33.241Z,58.54
2022-08-22T02:16:12.407Z,58.16
2022-08-22T02:19:05.189Z,57.44
2022-08-22T02:21:50.266Z,57.78
2022-08-22T02:24:47.757Z,58.09
2022-08-22T02:27:17.569Z,58.01
2022-08-22T02:29:52.329Z,58.47
2022-08-22T02:32:24.898Z,58.21
2022-08-22T02:35:14.205Z,57.87
2022-08-22T02:37:55.867Z,58.48
2022-08-22T02:40:31.918Z,58.06
2022-08-22T02:43:27.445Z,58.57
2022-08-22T02:46:11.878Z,58.80
2022-08-22T02:49:15.212Z,58.78
2022-08-22T02:52:03.218Z,58.66
2022-08-22T02:54:42.122Z,58.78
2022-08-22T02:57:27.073Z,58.65
2022-08-22T03:00:30.959Z,59.67
2022-08-22T03:03:21.147Z,58.97
2022-08-22T03:06:00.420Z,58.94
2022-08-22T03:08:47.418Z,58.96
2022-08-22T03:11:31.994Z,60.17
2022-08-22T03:14:20.315Z,60.33
2022-08-22T03:17:01.582Z,60.60
2022-08-22T03:19:43.725Z,60.77
2022-08-22T03:22:32.075Z,60.08
2022-08-22T03:25:13.707Z,59.99
2022-08-22T03:28:02.016Z,60.83
2022-08-22T03:30:35.245Z,60.82
2022-08-22T03:33:13.595Z,61.65
2022-08-22T03:35:45.974Z,61.51
2022-08-22T03:38:33.799Z,61.60
2022-08-22T03:41:17.687Z,61.47
2022-08-22T03:44:01.893Z,61.82
2022-08-22T03:46:50.752Z,61.40
2022-08-22T03:49:59.764Z,62.20
2022-08-22T03:53:19.381Z,61.18
2022-08-22T03:55:51.893Z,62.16
2022-08-22T03:58:36.801Z,61.72
2022-08-22T04:01:42.775Z,61.50
2022-08-22T04:04:38.546Z,62.04
2022-08-22T04:07:31.553Z,61.79
2022-08-22T04:10:20.116Z,61.59
2022-08-22T04:13:12.493Z,60.81
2022-08-22T04:16:19.448Z,61.14
2022-08-22T04:19:16.541Z,62.51
2022-08-22T04:22:06.673Z,61.31
2022-08-22T04:24:54.538Z,61.60
2022-08-22T04:27:27.466Z,62.12
2022-08-22T04:30:25.722Z,62.12
2022-08-22T04:33:22.173Z,62.63
2022-08-22T04:36:08.866Z,62.25
2022-08-22T04:39:05.118Z,62.44
2022-08-22T04:41:41.743Z,62.54
2022-08-22T04:44:14.896Z,63.50
2022-08-22T04:47:02.481Z,62.75
2022-08-22T04:49:59.166Z,62.68
2022-08-22T04:52:42.402Z,62.44
2022-08-22T04:55:29.960Z,62.50
2022-08-22T04:58:34.030Z,63.20
2022-08-22T05:01:06.676Z,63.73
2022-08-22T05:03:44.713Z,63.82
2022-08-22T05:06:14.422Z,63.99
2022-08-22T05:08:45.842Z,63.91
2022-08-22T05:11:19.275Z,64.12
2022-08-22T05:14:01.645Z,63.91
2022-08-22T05:16:32.930Z,63.94
2022-08-22T05:19:11.079Z,63.25
2022-08-22T05:21:42.715Z,63.08
2022-08-22T05:24:22.855Z,63.43
2022-08-22T05:26:57.544Z,63.78
2022-08-22T05:29:30.611Z,64.41
2022-08-22T05:32:07.148Z,66.16
2022-08-22T05:34:39.827Z,66.04
2022-08-22T05:37:14.211Z,65.75
2022-08-22T05:39:46.967Z,65.30
2022-08-22T05:42:22.791Z,65.17
2022-08-22T05:44:49.521Z,65.41
2022-08-22T05:47:33.173Z,65.66
2022-08-22T05:50:14.177Z,66.52
2022-08-22T05:53:06.034Z,66.63
2022-08-22T05:55:56.456Z,66.91
2022-08-22T05:58:50.753Z,66.63
2022-08-22T06:01:19.825Z,67.01
2022-08-22T06:04:11.664Z,66.79
2022-08-22T06:06:46.655Z,67.14
2022-08-22T06:09:35.371Z,67.19
2022-08-22T06:12:16.457Z,67.21
2022-08-22T06:15:13.511Z,67.19
2022-08-22T06:17:51.581Z,67.25
2022-08-22T06:20:32.852Z,66.65
2022-08-22T06:23:02.146Z,66.44
2022-08-22T06:25:33.152Z,65.67
2022-08-22T06:28:05.999Z,65.16
2022-08-22T06:30:34.213Z,64.05
2022-08-22T06:33:06.782Z,63.15
2022-08-22T06:35:57.176Z,62.59
2022-08-22T06:38:47.486Z,62.66
2022-08-22T06:41:14.133Z,61.85
2022-08-22T06:43:43.294Z,61.84
2022-08-22T06:46:13.075Z,61.14
2022-08-22T06:48:41.223Z,61.33
2022-08-22T06:51:08.761Z,61.39
2022-08-22T06:53:48.192Z,61.12
2022-08-22T06:56:21.913Z,61.06
2022-08-22T06:58:52.229Z,60.77
2022-08-22T07:01:25.370Z,60.95
2022-08-22T07:03:59.433Z,61.14
2022-08-22T07:06:41.920Z,60.97
2022-08-22T07:09:31.852Z,60.46
2022-08-22T07:12:03.139Z,59.92
2022-08-22T07:14:38.977Z,60.40
2022-08-22T07:17:08.961Z,60.24
2022-08-22T07:19:39.735Z,59.77
2022-08-22T07:22:22.528Z,59.91
2022-08-22T07:24:54.974Z,59.56
2022-08-22T07:27:26.118Z,60.06
2022-08-22T07:30:12.917Z,60.36
2022-08-22T07:32:43.198Z,59.89
2022-08-22T07:35:26.942Z,60.52
2022-08-22T07:38:13.830Z,61.07
2022-08-22T07:40:58.775Z,61.46
2022-08-22T07:43:52.156Z,61.24
2022-08-22T07:46:33.979Z,61.25
2022-08-22T07:49:17.834Z,61.59
2022-08-22T07:51:49.582Z,61.22
2022-08-22T07:54:47.074Z,60.30
2022-08-22T07:57:13.399Z,60.17
2022-08-22T07:59:47.214Z,59.53
2022-08-22T08:02:15.974Z,59.78
2022-08-22T08:04:43.977Z,59.69
2022-08-22T08:07:14.822Z,59.20
2022-08-22T08:09:46.189Z,58.84
2022-08-22T08:12:15.675Z,57.83
2022-08-22T08:14:45.358Z,56.41
2022-08-22T08:17:19.103Z,55.45
2022-08-22T08:19:47.292Z,55.25
2022-08-22T08:22:23.606Z,53.88
2022-08-22T08:24:51.575Z,53.73
2022-08-22T08:27:41.818Z,52.89
2022-08-22T08:30:15.743Z,51.89
2022-08-22T08:32:47.929Z,51.31
2022-08-22T08:35:28.258Z,49.73
2022-08-22T08:38:18.372Z,48.58
2022-08-22T08:41:13.636Z,48.98
2022-08-22T08:43:57.788Z,49.84
2022-08-22T08:47:05.792Z,49.60
2022-08-22T08:49:53.259Z,49.07
2022-08-22T08:52:52.574Z,47.73
2022-08-22T08:55:44.919Z,48.67
2022-08-22T08:58:48.823Z,47.22
2022-08-22T09:01:43.033Z,46.54
2022-08-22T09:04:40.721Z,47.02
2022-08-22T09:07:13.308Z,46.03
2022-08-22T09:09:46.200Z,45.70
2022-08-22T09:12:56.474Z,47.01
2022-08-22T09:16:10.038Z,47.44
2022-08-22T09:18:48.646Z,46.12
2022-08-22T09:22:00.287Z,45.88
2022-08-22T09:25:00.334Z,45.92
2022-08-22T09:27:45.633Z,45.44
2022-08-22T09:30:27.725Z,45.79
2022-08-22T09:33:01.060Z,45.22
2022-08-22T09:35:33.414Z,45.15
2022-08-22T09:38:23.519Z,45.30
2022-08-22T09:41:00.204Z,44.87
2022-08-22T09:43:45.042Z,44.58
2022-08-22T09:46:18.552Z,44.00
2022-08-22T09:49:09.366Z,42.88
2022-08-22T09:51:52.718Z,44.00
2022-08-22T09:54:43.647Z,44.98
2022-08-22T09:57:19.956Z,44.44
2022-08-22T10:00:17.834Z,45.07
2022-08-22T10:03:15.731Z,44.34
2022-08-22T10:05:47.895Z,44.01
2022-08-22T10:08:46.032Z,43.32
2022-08-22T10:11:18.800Z,43.65
2022-08-22T10:13:57.616Z,43.32
2022-08-22T10:16:58.572Z,42.99
2022-08-22T10:19:49.444Z,42.80
2022-08-22T10:22:30.285Z,42.14
2022-08-22T10:25:28.496Z,40.97
2022-08-22T10:28:14.717Z,41.10
2022-08-22T10:30:56.405Z,41.10
2022-08-22T10:33:32.173Z,41.00
2022-08-22T10:36:11.978Z,40.04
2022-08-22T10:38:53.637Z,40.19
2022-08-22T10:41:32.680Z,39.67
2022-08-22T10:44:21.529Z,38.42
2022-08-22T10:47:05.262Z,39.60
2022-08-22T10:49:45.913Z,38.43
2022-08-22T10:52:39.217Z,38.84
2022-08-22T10:55:24.934Z,38.48
2022-08-22T10:58:10.956Z,38.35
2022-08-22T11:00:50.491Z,38.70
2022-08-22T11:03:38.822Z,38.42
2022-08-22T11:06:21.610Z,36.74
2022-08-22T11:08:59.739Z,38.25
2022-08-22T11:11:54.629Z,39.05
2022-08-22T11:14:36.591Z,38.60
2022-08-22T11:17:31.097Z,38.14
2022-08-22T11:20:09.829Z,38.05
2022-08-22T11:22:55.595Z,38.41
2022-08-22T11:25:44.244Z,38.46
2022-08-22T11:28:13.386Z,37.30
2022-08-22T11:30:57.715Z,36.44
2022-08-22T11:33:53.031Z,36.21
2022-08-22T11:36:46.749Z,37.43
2022-08-22T11:40:05.753Z,37.30
2022-08-22T11:42:47.421Z,37.02
2022-08-22T11:45:31.337Z,36.81
2022-08-22T11:48:02.492Z,36.49
2022-08-22T11:50:39.037Z,37.18
2022-08-22T11:53:41.954Z,35.94
2022-08-22T11:56:22.774Z,36.36
2022-08-22T11:58:59.367Z,36.33
2022-08-22T12:01:43.892Z,36.59
2022-08-22T12:04:25.438Z,35.94
2022-08-22T12:07:00.994Z,36.32
2022-08-22T12:09:40.671Z,36.12
2022-08-22T12:12:34.412Z,35.78
2022-08-22T12:15:01.595Z,34.75
2022-08-22T12:17:55.896Z,33.98
2022-08-22T12:20:40.684Z,34.62
2022-08-22T12:23:43.687Z,35.30
2022-08-22T12:26:25.532Z,33.65
2022-08-22T12:29:15.504Z,33.19
2022-08-22T12:31:58.241Z,34.31
2022-08-22T12:34:33.744Z,33.45
2022-08-22T12:37:30.115Z,33.41
2022-08-22T12:40:15.998Z,33.10
2022-08-22T12:43:12.904Z,33.17
2022-08-22T12:45:51.377Z,33.19
2022-08-22T12:48:45.977Z,32.40
2022-08-22T12:51:38.936Z,30.71
2022-08-22T12:54:36.108Z,32.38
2022-08-22T12:57:26.627Z,31.48
2022-08-22T12:59:59.143Z,30.63
2022-08-22T13:02:34.032Z,30.48
2022-08-22T13:05:22.484Z,32.73
2022-08-22T13:08:05.262Z,32.50
2022-08-22T13:10:38.081Z,32.89
2022-08-22T13:13:12.349Z,32.63
2022-08-22T13:15:53.534Z,32.15
2022-08-22T13:18:30.771Z,31.55
2022-08-22T13:21:02.465Z,31.51
2022-08-22T13:23:39.567Z,32.02
2022-08-22T13:26:24.582Z,31.71
2022-08-22T13:29:24.715Z,31.63
2022-08-22T13:31:55.384Z,31.23
2022-08-22T13:34:50.850Z,30.18
2022-08-22T13:37:24.740Z,30.43
2022-08-22T13:39:58.809Z,30.55
2022-08-22T13:42:29.948Z,30.49
2022-08-22T13:44:59.717Z,31.22
2022-08-22T13:47:31.699Z,31.35
2022-08-22T13:50:13.980Z,30.95
2022-08-22T13:52:54.959Z,30.68
2022-08-22T13:55:29.543Z,30.59
2022-08-22T13:58:30.676Z,30.52
2022-08-22T14:01:28.593Z,30.20
2022-08-22T14:04:31.658Z,30.41
2022-08-22T14:07:02.258Z,29.05
2022-08-22T14:09:51.321Z,28.87
2022-08-22T14:12:28.673Z,28.60
2022-08-22T14:15:03.557Z,28.44
2022-08-22T14:17:42.994Z,28.38
2022-08-22T14:20:32.319Z,28.62
2022-08-22T14:23:07.110Z,27.62
2022-08-22T14:25:36.565Z,27.44
2022-08-22T14:28:09.344Z,27.61
2022-08-22T14:30:51.370Z,26.84
2022-08-22T14:33:31.958Z,28.23
2022-08-22T14:36:03.248Z,27.04
2022-08-22T14:38:32.595Z,27.45
2022-08-22T14:41:05.218Z,27.76
2022-08-22T14:43:31.869Z,28.36
2022-08-22T14:46:06.135Z,28.77
2022-08-22T14:49:03.182Z,29.46
2022-08-22T14:51:29.862Z,27.97
2022-08-22T14:54:14.140Z,28.52
2022-08-22T14:56:49.635Z,28.89
2022-08-22T14:59:35.904Z,28.84
2022-08-22T15:02:09.989Z,29.65
2022-08-22T15:04:46.027Z,29.24
2022-08-22T15:07:23.790Z,28.63
2022-08-22T15:09:55.120Z,27.75
2022-08-22T15:12:35.412Z,28.00
2022-08-22T15:15:41.106Z,27.54
2022-08-22T15:18:33.810Z,27.32
2022-08-22T15:21:12.385Z,27.95
2022-08-22T15:23:45.176Z,27.77
2022-08-22T15:26:25.260Z,27.78
2022-08-22T15:29:02.026Z,27.51
2022-08-22T15:31:31.717Z,27.42
2022-08-22T15:34:08.143Z,27.97
2022-08-22T15:36:36.133Z,28.74
2022-08-22T15:39:27.556Z,29.15
2022-08-22T15:41:55.234Z,28.62
2022-08-22T15:44:30.773Z,29.01
2022-08-22T15:47:11.542Z,28.92
2022-08-22T15:49:53.666Z,29.35
2022-08-22T15:52:27.088Z,30.13
2022-08-22T15:54:53.713Z,30.13
2022-08-22T15:57:32.020Z,29.82
2022-08-22T16:00:04.208Z,29.94
2022-08-22T16:02:56.478Z,29.56
2022-08-22T16:05:37.219Z,28.87
2022-08-22T16:08:10.984Z,29.51
2022-08-22T16:10:53.539Z,28.44
2022-08-22T16:13:26.491Z,28.74
2022-08-22T16:16:19.738Z,29.56
2022-08-22T16:18:49.134Z,29.43
2022-08-22T16:21:22.062Z,29.44
2022-08-22T16:23:53.679Z,29.14
2022-08-22T16:26:36.339Z,29.35
2022-08-22T16:29:17.486Z,30.09
2022-08-22T16:31:44.312Z,29.35
2022-08-22T16:34:45.515Z,29.90
2022-08-22T16:37:25.133Z,29.61
2022-08-22T16:43:52.690Z,30.07
2022-08-22T16:46:54.017Z,29.84
2022-08-22T16:49:32.334Z,30.62
2022-08-22T16:52:27.813Z,31.19
2022-08-22T16:54:59.186Z,30.59
2022-08-22T16:58:05.712Z,30.73
2022-08-22T17:00:44.643Z,30.71
2022-08-22T17:03:32.081Z,31.37
2022-08-22T17:06:01.422Z,29.88
2022-08-22T17:08:45.644Z,30.82
2022-08-22T17:11:30.537Z,30.60
2022-08-22T17:14:21.860Z,29.97
2022-08-22T17:17:12.764Z,30.60
2022-08-22T17:19:57.986Z,31.62
2022-08-22T17:22:31.883Z,31.04
2022-08-22T17:25:14.069Z,30.66
2022-08-22T17:27:44.522Z,31.05
2022-08-22T17:30:29.036Z,30.50
2022-08-22T17:33:04.326Z,31.37
2022-08-22T17:36:06.082Z,31.00
2022-08-22T17:38:41.742Z,31.27
2022-08-22T17:41:38.009Z,31.22
2022-08-22T17:44:13.797Z,31.64
2022-08-22T17:46:40.111Z,31.29
2022-08-22T17:49:20.789Z,31.37
2022-08-22T17:51:58.984Z,31.74
2022-08-22T17:54:29.623Z,31.85
2022-08-22T17:57:05.982Z,31.92
2022-08-22T17:59:51.079Z,31.69
2022-08-22T18:02:31.595Z,32.55
2022-08-22T18:05:39.893Z,32.37
2022-08-22T18:11:26.659Z,33.18
2022-08-22T18:14:09.105Z,32.55
2022-08-22T18:16:41.970Z,33.14
2022-08-22T18:19:25.355Z,33.40
2022-08-22T18:21:59.664Z,34.15
2022-08-22T18:24:44.872Z,34.49
2022-08-22T18:27:35.031Z,34.08
2022-08-22T18:30:24.632Z,34.39
2022-08-22T18:33:14.656Z,34.35
2022-08-22T18:35:54.629Z,34.58
2022-08-22T18:38:26.520Z,35.00
2022-08-22T18:40:58.248Z,35.08
2022-08-22T18:43:44.680Z,35.07
2022-08-22T18:46:38.999Z,35.75
2022-08-22T18:49:46.425Z,36.70
2022-08-22T18:52:20.052Z,36.77
2022-08-22T18:55:15.170Z,36.48
2022-08-22T18:58:03.714Z,36.50
2022-08-22T19:01:32.383Z,36.42
2022-08-22T19:04:41.461Z,37.67
2022-08-22T19:07:31.146Z,36.99
2022-08-22T19:10:18.571Z,36.77
2022-08-22T19:13:03.372Z,37.42
2022-08-22T19:15:54.461Z,36.99
2022-08-22T19:18:40.351Z,37.13
2022-08-22T19:21:40.291Z,36.80
2022-08-22T19:24:25.125Z,37.35
2022-08-22T19:27:15.208Z,37.48
2022-08-22T19:29:41.608Z,38.65
2022-08-22T19:32:13.029Z,39.67
2022-08-22T19:34:47.096Z,38.46
2022-08-22T19:37:32.231Z,37.96
2022-08-22T19:40:11.606Z,38.29
2022-08-22T19:42:41.490Z,39.91
2022-08-22T19:45:28.762Z,39.75
2022-08-22T19:48:09.470Z,39.73
2022-08-22T19:50:39.095Z,40.39
2022-08-22T19:53:24.973Z,39.92
2022-08-22T19:56:03.820Z,39.19
2022-08-22T19:58:54.463Z,39.26
2022-08-22T20:01:33.157Z,39.76
2022-08-22T20:04:36.673Z,39.96
2022-08-22T20:07:15.357Z,39.70
2022-08-22T20:09:54.457Z,38.83
2022-08-22T20:12:43.915Z,40.00
2022-08-22T20:15:17.868Z,39.18
2022-08-22T20:17:44.686Z,39.41
2022-08-22T20:20:35.257Z,38.84
2022-08-22T20:23:26.741Z,39.45
2022-08-22T20:25:55.877Z,38.80
2022-08-22T20:28:32.251Z,39.05
2022-08-22T20:31:02.209Z,39.98
2022-08-22T20:33:34.824Z,41.13
2022-08-22T20:36:06.161Z,40.92
2022-08-22T20:38:56.919Z,41.33
2022-08-22T20:41:26.499Z,40.26
2022-08-22T20:43:57.099Z,40.13
2022-08-22T20:46:43.567Z,40.43
2022-08-22T20:49:18.392Z,41.11
2022-08-22T20:51:54.480Z,40.93
2022-08-22T20:54:24.247Z,41.32
2022-08-22T20:56:57.698Z,40.46
2022-08-22T20:59:35.873Z,41.19
2022-08-22T21:02:15.657Z,41.43
2022-08-22T21:05:00.101Z,41.86
2022-08-22T21:07:31.238Z,41.57
2022-08-22T21:10:27.462Z,42.48
2022-08-22T21:13:33.228Z,41.99
2022-08-22T21:16:11.287Z,42.46
2022-08-22T21:18:41.633Z,43.28
2022-08-22T21:21:18.205Z,43.91
2022-08-22T21:24:06.598Z,43.64
2022-08-22T21:26:33.005Z,43.66
2022-08-22T21:29:05.452Z,43.80
2022-08-22T21:31:42.352Z,43.93
2022-08-22T21:34:20.720Z,43.96
2022-08-22T21:36:50.916Z,44.24
2022-08-22T21:39:21.937Z,44.61
2022-08-22T21:41:52.740Z,44.83
2022-08-22T21:44:28.343Z,44.87
2022-08-22T21:46:55.789Z,45.17
2022-08-22T21:49:31.672Z,45.67
2022-08-22T21:51:58.179Z,44.25
2022-08-22T21:54:24.546Z,45.00
2022-08-22T21:56:53.726Z,44.89
2022-08-22T21:59:26.819Z,45.43
2022-08-22T22:02:31.277Z,45.49
2022-08-22T22:05:02.452Z,45.67
2022-08-22T22:07:29.179Z,45.47
2022-08-22T22:09:56.075Z,45.76
2022-08-22T22:12:23.023Z,46.45
2022-08-22T22:14:49.957Z,46.74
2022-08-22T22:17:18.857Z,46.11
2022-08-22T22:19:45.558Z,46.52
2022-08-22T22:22:12.074Z,47.72
2022-08-22T22:24:38.604Z,48.11
2022-08-22T22:27:05.797Z,48.21
2022-08-22T22:29:33.928Z,47.74
2022-08-22T22:32:00.405Z,47.62
2022-08-22T22:34:26.859Z,47.15
2022-08-22T22:36:54.020Z,47.50
2022-08-22T22:39:20.438Z,47.25
2022-08-22T22:41:46.961Z,47.78
2022-08-22T22:44:13.374Z,47.91
2022-08-22T22:46:39.961Z,47.99
2022-08-22T22:49:06.448Z,48.33
2022-08-22T22:51:33.266Z,48.63
2022-08-22T22:53:59.866Z,47.80
2022-08-22T22:56:27.363Z,48.27
2022-08-22T22:59:00.745Z,48.38
2022-08-22T23:01:58.577Z,49.08
2022-08-22T23:04:25.025Z,48.25
2022-08-22T23:06:51.439Z,48.41
2022-08-22T23:09:17.852Z,48.04
2022-08-22T23:11:44.430Z,48.44
2022-08-22T23:14:10.956Z,48.94
2022-08-22T23:16:39.493Z,49.19
2022-08-22T23:19:10.486Z,48.81
2022-08-22T23:21:37.680Z,49.21
2022-08-22T23:24:04.251Z,49.05
2022-08-22T23:26:30.963Z,49.71
2022-08-22T23:28:58.533Z,49.53
2022-08-22T23:31:37.587Z,49.41
2022-08-22T23:34:12.692Z,50.20
2022-08-22T23:36:41.156Z,50.14
2022-08-22T23:39:09.364Z,49.34
2022-08-22T23:41:36.605Z,49.02
2022-08-22T23:44:05.777Z,49.34
2022-08-22T23:46:32.770Z,49.69
2022-08-22T23:49:02.441Z,49.52
2022-08-22T23:51:29.167Z,49.95
2022-08-22T23:53:57.596Z,49.93
2022-08-22T23:56:29.600Z,50.67
2022-08-22T23:58:57.213Z,50.21
